createdAt,value
2022-08-20T00:01:02.288Z,18.73
2022-08-20T00:02:05.289Z,19.05
2022-08-20T00:03:14.145Z,20.00
2022-08-20T00:04:16.463Z,20.88
2022-08-20T00:05:27.824Z,19.58
2022-08-20T00:06:30.107Z,18.85
2022-08-20T00:07:32.330Z,21.05
2022-08-20T00:08:34.884Z,20.48
2022-08-20T00:09:37.247Z,18.70
2022-08-20T00:10:42.064Z,20.02
2022-08-20T00:11:44.246Z,17.73
2022-08-20T00:12:49.260Z,20.00
2022-08-20T00:13:55.094Z,21.55
2022-08-20T00:14:57.343Z,18.83
2022-08-20T00:16:00.210Z,19.92
2022-08-20T00:17:04.246Z,20.77
2022-08-20T00:18:07.666Z,19.58
2022-08-20T00:19:10.228Z,19.95
2022-08-20T00:20:13.937Z,20.15
2022-08-20T00:21:19.033Z,18.52
2022-08-20T00:22:21.876Z,20.88
2022-08-20T00:23:25.053Z,23.60
2022-08-20T00:24:27.263Z,22.95
2022-08-20T00:25:29.779Z,20.08
2022-08-20T00:26:32.066Z,19.88
2022-08-20T00:27:34.298Z,18.08
2022-08-20T00:28:37.021Z,21.67
2022-08-20T00:29:39.260Z,20.65
2022-08-20T00:30:44.729Z,23.90
2022-08-20T00:31:46.964Z,21.73
2022-08-20T00:33:00.375Z,20.85
2022-08-20T00:34:02.694Z,20.02
2022-08-20T00:35:05.252Z,20.40
2022-08-20T00:36:10.831Z,21.45
2022-08-20T00:37:13.102Z,20.45
2022-08-20T00:38:15.682Z,22.92
2022-08-20T00:39:17.948Z,22.48
2022-08-20T00:40:31.074Z,21.67
2022-08-20T00:41:33.311Z,21.15
2022-08-20T00:42:51.036Z,21.02
2022-08-20T00:44:19.222Z,21.13
2022-08-20T00:45:21.697Z,22.25
2022-08-20T00:46:30.899Z,21.45
2022-08-20T00:47:34.389Z,21.42
2022-08-20T00:48:39.951Z,19.77
2022-08-20T00:49:42.194Z,20.77
2022-08-20T00:50:45.681Z,22.15
2022-08-20T00:51:53.546Z,22.33
2022-08-20T00:52:56.190Z,22.20
2022-08-20T00:54:17.006Z,21.17
2022-08-20T00:55:24.399Z,20.85
2022-08-20T00:56:30.712Z,21.27
2022-08-20T00:57:53.301Z,20.63
2022-08-20T00:59:01.992Z,24.75
2022-08-20T01:00:11.721Z,21.50
2022-08-20T01:01:15.854Z,21.38
2022-08-20T01:02:21.465Z,23.38
2022-08-20T01:03:24.347Z,22.13
2022-08-20T01:04:33.715Z,22.65
2022-08-20T01:05:42.658Z,23.27
2022-08-20T01:06:45.053Z,22.67
2022-08-20T01:07:48.503Z,23.40
2022-08-20T01:08:53.935Z,23.98
2022-08-20T01:09:59.552Z,24.63
2022-08-20T01:11:10.191Z,24.25
2022-08-20T01:12:14.391Z,24.30
2022-08-20T01:13:22.010Z,22.98
2022-08-20T01:14:28.690Z,24.80
2022-08-20T01:15:31.984Z,23.27
2022-08-20T01:16:36.702Z,22.23
2022-08-20T01:17:47.354Z,24.08
2022-08-20T01:18:50.645Z,24.88
2022-08-20T01:19:57.805Z,23.55
2022-08-20T01:21:04.193Z,23.73
2022-08-20T01:22:28.237Z,25.38
2022-08-20T01:23:44.843Z,23.70
2022-08-20T01:24:50.449Z,23.75
2022-08-20T01:26:09.706Z,23.08
2022-08-20T01:27:11.960Z,22.20
2022-08-20T01:28:22.861Z,24.55
2022-08-20T01:29:29.419Z,23.20
2022-08-20T01:30:33.108Z,25.77
2022-08-20T01:31:38.828Z,26.25
2022-08-20T01:32:41.187Z,26.10
2022-08-20T01:33:44.665Z,24.30
2022-08-20T01:34:48.562Z,23.73
2022-08-20T01:35:52.250Z,26.73
2022-08-20T01:36:57.721Z,26.02
2022-08-20T01:37:59.918Z,23.90
2022-08-20T01:39:05.102Z,24.40
2022-08-20T01:40:14.145Z,22.23
2022-08-20T01:41:41.425Z,24.63
2022-08-20T01:42:59.205Z,24.73
2022-08-20T01:44:03.155Z,23.92
2022-08-20T01:45:08.067Z,24.88
2022-08-20T01:46:10.545Z,24.65
2022-08-20T01:47:16.237Z,26.10
2022-08-20T01:48:19.643Z,23.30
2022-08-20T01:49:23.412Z,24.38
2022-08-20T01:50:30.768Z,27.25
2022-08-20T01:51:32.988Z,26.00
2022-08-20T01:52:56.988Z,28.13
2022-08-20T01:54:00.045Z,25.88
2022-08-20T01:55:02.657Z,25.73
2022-08-20T01:56:08.172Z,25.23
2022-08-20T01:57:13.923Z,26.20
2022-08-20T01:58:17.221Z,25.75
2022-08-20T01:59:19.535Z,24.95
2022-08-20T02:00:22.946Z,26.52
2022-08-20T02:01:27.597Z,25.75
2022-08-20T02:02:29.831Z,25.27
2022-08-20T02:03:37.392Z,26.85
2022-08-20T02:04:41.795Z,27.73
2022-08-20T02:05:44.171Z,25.05
2022-08-20T02:06:56.567Z,26.17
2022-08-20T02:08:00.334Z,26.30
2022-08-20T02:09:04.837Z,28.10
2022-08-20T02:10:11.149Z,29.38
2022-08-20T02:11:13.731Z,26.55
2022-08-20T02:12:17.747Z,26.77
2022-08-20T02:13:21.040Z,27.58
2022-08-20T02:14:23.679Z,27.50
2022-08-20T02:15:34.416Z,28.70
2022-08-20T02:16:41.746Z,26.45
2022-08-20T02:17:44.034Z,26.02
2022-08-20T02:18:46.993Z,28.35
2022-08-20T02:19:57.025Z,29.00
2022-08-20T02:20:59.877Z,27.13
2022-08-20T02:22:07.215Z,28.25
2022-08-20T02:23:10.186Z,28.02
2022-08-20T02:24:13.054Z,28.52
2022-08-20T02:25:17.636Z,29.63
2022-08-20T02:26:19.921Z,26.42
2022-08-20T02:27:24.435Z,28.95
2022-08-20T02:28:27.838Z,27.88
2022-08-20T02:29:30.131Z,28.35
2022-08-20T02:30:36.286Z,29.60
2022-08-20T02:31:43.595Z,29.08
2022-08-20T02:33:04.493Z,28.90
2022-08-20T02:34:21.738Z,27.10
2022-08-20T02:35:25.700Z,29.42
2022-08-20T02:36:28.003Z,28.83
2022-08-20T02:37:30.550Z,28.05
2022-08-20T02:38:35.506Z,27.33
2022-08-20T02:39:37.803Z,28.98
2022-08-20T02:40:40.102Z,27.98
2022-08-20T02:41:42.466Z,27.40
2022-08-20T02:42:47.239Z,29.70
2022-08-20T02:43:51.336Z,31.58
2022-08-20T02:44:54.634Z,28.60
2022-08-20T02:45:56.934Z,29.70
2022-08-20T02:47:00.361Z,29.98
2022-08-20T02:48:04.133Z,28.00
2022-08-20T02:49:06.422Z,31.60
2022-08-20T02:50:14.387Z,31.08
2022-08-20T02:51:16.708Z,29.70
2022-08-20T02:52:19.108Z,30.63
2022-08-20T02:53:22.681Z,30.13
2022-08-20T02:54:24.857Z,30.23
2022-08-20T02:55:28.222Z,28.55
2022-08-20T02:56:30.646Z,26.85
2022-08-20T02:57:40.621Z,28.35
2022-08-20T02:58:43.196Z,28.88
2022-08-20T02:59:45.444Z,29.08
2022-08-20T03:00:48.801Z,28.65
2022-08-20T03:02:00.191Z,32.33
2022-08-20T03:03:04.565Z,28.63
2022-08-20T03:04:06.805Z,29.05
2022-08-20T03:05:09.523Z,27.60
2022-08-20T03:06:14.085Z,30.35
2022-08-20T03:07:16.408Z,30.25
2022-08-20T03:08:26.261Z,28.10
2022-08-20T03:09:28.508Z,29.38
2022-08-20T03:10:34.062Z,28.48
2022-08-20T03:11:36.585Z,27.67
2022-08-20T03:12:39.124Z,29.05
2022-08-20T03:13:41.296Z,28.65
2022-08-20T03:14:44.175Z,30.40
2022-08-20T03:15:58.764Z,32.42
2022-08-20T03:17:01.567Z,30.70
2022-08-20T03:18:03.866Z,30.65
2022-08-20T03:19:06.034Z,30.00
2022-08-20T03:20:08.958Z,27.77
2022-08-20T03:21:14.636Z,29.85
2022-08-20T03:22:17.165Z,27.25
2022-08-20T03:23:21.103Z,29.35
2022-08-20T03:24:23.307Z,29.70
2022-08-20T03:25:25.617Z,30.30
2022-08-20T03:26:29.155Z,29.92
2022-08-20T03:27:33.013Z,30.08
2022-08-20T03:28:39.379Z,28.50
2022-08-20T03:29:41.576Z,25.50
2022-08-20T03:30:44.397Z,28.63
2022-08-20T03:31:48.854Z,29.48
2022-08-20T03:32:51.949Z,27.35
2022-08-20T03:33:54.222Z,26.77
2022-08-20T03:34:56.478Z,26.25
2022-08-20T03:35:58.933Z,27.75
2022-08-20T03:37:01.190Z,29.52
2022-08-20T03:38:08.216Z,25.70
2022-08-20T03:39:13.490Z,28.00
2022-08-20T03:40:24.071Z,27.80
2022-08-20T03:41:26.669Z,25.15
2022-08-20T03:42:29.032Z,26.77
2022-08-20T03:43:31.824Z,25.45
2022-08-20T03:44:34.837Z,25.13
2022-08-20T03:45:39.562Z,24.27
2022-08-20T03:46:41.809Z,24.50
2022-08-20T03:47:44.132Z,23.73
2022-08-20T03:48:46.522Z,24.17
2022-08-20T03:49:51.281Z,25.17
2022-08-20T03:50:53.660Z,22.63
2022-08-20T03:51:58.466Z,21.73
2022-08-20T03:53:01.494Z,21.15
2022-08-20T03:54:03.745Z,23.10
2022-08-20T03:55:08.537Z,21.42
2022-08-20T03:56:11.391Z,22.38
2022-08-20T03:57:16.147Z,22.65
2022-08-20T03:58:19.540Z,22.40
2022-08-20T03:59:23.686Z,19.75
2022-08-20T04:00:31.228Z,21.45
2022-08-20T04:01:46.174Z,21.02
2022-08-20T04:02:49.245Z,18.67
2022-08-20T04:03:55.141Z,19.85
2022-08-20T04:04:57.500Z,18.75
2022-08-20T04:05:59.916Z,18.30
2022-08-20T04:07:13.895Z,18.98
2022-08-20T04:08:20.111Z,17.90
2022-08-20T04:09:22.546Z,17.65
2022-08-20T04:10:25.558Z,17.50
2022-08-20T04:11:27.753Z,18.95
2022-08-20T04:12:30.004Z,17.25
2022-08-20T04:13:32.343Z,17.10
2022-08-20T04:14:36.737Z,16.00
2022-08-20T04:15:40.204Z,16.40
2022-08-20T04:16:43.281Z,16.60
2022-08-20T04:17:48.200Z,15.93
2022-08-20T04:19:01.335Z,17.35
2022-08-20T04:20:07.509Z,15.48
2022-08-20T04:21:11.566Z,16.48
2022-08-20T04:22:14.349Z,14.48
2022-08-20T04:23:16.815Z,16.40
2022-08-20T04:24:22.739Z,15.40
2022-08-20T04:25:36.344Z,14.70
2022-08-20T04:26:39.261Z,14.43
2022-08-20T04:27:42.564Z,14.40
2022-08-20T04:28:44.753Z,15.80
2022-08-20T04:29:47.120Z,13.50
2022-08-20T04:30:51.917Z,14.05
2022-08-20T04:31:55.954Z,13.30
2022-08-20T04:32:59.679Z,13.57
2022-08-20T04:34:02.450Z,14.15
2022-08-20T04:35:07.684Z,13.98
2022-08-20T04:36:10.777Z,12.35
2022-08-20T04:37:17.185Z,12.98
2022-08-20T04:38:26.428Z,12.93
2022-08-20T04:40:10.170Z,13.82
2022-08-20T04:41:22.593Z,12.40
2022-08-20T04:42:26.310Z,12.68
2022-08-20T04:43:31.235Z,12.20
2022-08-20T04:44:33.423Z,12.35
2022-08-20T04:45:35.663Z,12.20
2022-08-20T04:46:41.280Z,12.55
2022-08-20T04:47:43.555Z,11.55
2022-08-20T04:48:48.479Z,10.63
2022-08-20T04:49:51.434Z,11.50
2022-08-20T04:51:01.695Z,11.10
2022-08-20T04:52:06.178Z,11.68
2022-08-20T04:53:10.911Z,11.25
2022-08-20T04:54:14.881Z,12.10
2022-08-20T04:55:17.713Z,11.35
2022-08-20T04:56:24.460Z,10.93
2022-08-20T04:57:26.804Z,11.43
2022-08-20T04:58:35.059Z,11.10
2022-08-20T04:59:37.280Z,11.98
2022-08-20T05:00:39.829Z,11.70
2022-08-20T05:01:42.135Z,10.77
2022-08-20T05:02:44.818Z,12.00
2022-08-20T05:03:49.625Z,11.00
2022-08-20T05:04:51.922Z,11.45
2022-08-20T05:05:54.424Z,11.50
2022-08-20T05:06:56.600Z,12.27
2022-08-20T05:07:59.036Z,11.80
2022-08-20T05:09:01.530Z,11.77
2022-08-20T05:10:05.639Z,13.70
2022-08-20T05:11:35.813Z,13.00
2022-08-20T05:12:31.840Z,12.88
2022-08-20T05:13:34.061Z,14.98
2022-08-20T05:14:36.339Z,14.10
2022-08-20T05:15:39.258Z,16.52
2022-08-20T05:16:41.518Z,17.52
2022-08-20T05:17:44.557Z,15.93
2022-08-20T05:18:50.541Z,19.17
2022-08-20T05:19:54.905Z,17.45
2022-08-20T05:21:02.862Z,17.25
2022-08-20T05:22:05.047Z,18.92
2022-08-20T05:23:12.443Z,31.90
2022-08-20T05:24:15.009Z,48.20
2022-08-20T05:25:17.474Z,38.63
2022-08-20T05:26:20.548Z,38.70
2022-08-20T05:27:27.255Z,30.90
2022-08-20T05:28:32.970Z,29.23
2022-08-20T05:29:39.134Z,20.08
2022-08-20T05:30:43.595Z,20.50
2022-08-20T05:31:45.810Z,20.55
2022-08-20T05:32:49.403Z,22.73
2022-08-20T05:33:51.714Z,20.77
2022-08-20T05:34:54.932Z,22.65
2022-08-20T05:35:58.707Z,19.17
2022-08-20T05:37:04.354Z,20.20
2022-08-20T05:38:13.059Z,17.90
2022-08-20T05:39:16.310Z,20.15
2022-08-20T05:40:18.605Z,17.83
2022-08-20T05:41:29.110Z,16.02
2022-08-20T05:42:32.226Z,17.50
2022-08-20T05:43:34.438Z,16.77
2022-08-20T05:44:38.257Z,18.40
2022-08-20T05:45:42.711Z,17.48
2022-08-20T05:46:47.436Z,17.30
2022-08-20T05:47:54.245Z,16.02
2022-08-20T05:49:01.959Z,16.83
2022-08-20T05:50:06.028Z,17.15
2022-08-20T05:51:11.022Z,17.52
2022-08-20T05:52:15.448Z,18.08
2022-08-20T05:53:19.149Z,17.92
2022-08-20T05:54:22.088Z,17.38
2022-08-20T05:55:24.444Z,16.58
2022-08-20T05:56:30.742Z,17.52
2022-08-20T05:57:34.407Z,16.95
2022-08-20T05:58:37.272Z,16.85
2022-08-20T05:59:39.828Z,17.55
2022-08-20T06:00:42.038Z,16.90
2022-08-20T06:01:44.325Z,17.17
2022-08-20T06:03:05.068Z,16.60
2022-08-20T06:04:27.016Z,17.50
2022-08-20T06:05:31.776Z,17.15
2022-08-20T06:06:46.002Z,18.25
2022-08-20T06:07:50.819Z,17.75
2022-08-20T06:08:56.982Z,18.17
2022-08-20T06:10:00.536Z,16.92
2022-08-20T06:11:03.662Z,18.73
2022-08-20T06:12:08.494Z,17.02
2022-08-20T06:13:14.053Z,17.55
2022-08-20T06:14:17.160Z,18.85
2022-08-20T06:15:21.196Z,18.13
2022-08-20T06:16:29.059Z,19.48
2022-08-20T06:17:36.409Z,19.63
2022-08-20T06:18:41.939Z,19.50
2022-08-20T06:19:47.222Z,18.52
2022-08-20T06:20:50.587Z,18.67
2022-08-20T06:21:53.214Z,19.65
2022-08-20T06:22:56.249Z,18.90
2022-08-20T06:24:01.456Z,19.27
2022-08-20T06:25:07.463Z,18.58
2022-08-20T06:26:09.755Z,18.20
2022-08-20T06:27:15.137Z,19.08
2022-08-20T06:28:20.179Z,18.95
2022-08-20T06:29:22.425Z,19.05
2022-08-20T06:30:25.877Z,22.23
2022-08-20T06:31:28.534Z,19.73
2022-08-20T06:32:32.772Z,19.60
2022-08-20T06:33:35.236Z,19.85
2022-08-20T06:34:37.452Z,20.45
2022-08-20T06:35:39.856Z,21.08
2022-08-20T06:36:42.089Z,20.77
2022-08-20T06:37:44.299Z,21.52
2022-08-20T06:38:46.924Z,20.63
2022-08-20T06:39:53.143Z,20.67
2022-08-20T06:40:56.114Z,20.50
2022-08-20T06:41:58.857Z,19.80
2022-08-20T06:43:01.738Z,20.35
2022-08-20T06:44:06.656Z,23.95
2022-08-20T06:45:11.406Z,21.05
2022-08-20T06:46:14.711Z,22.50
2022-08-20T06:47:19.362Z,21.30
2022-08-20T06:48:21.552Z,23.00
2022-08-20T06:49:23.744Z,21.05
2022-08-20T06:50:31.328Z,21.67
2022-08-20T06:51:34.592Z,21.27
2022-08-20T06:52:52.274Z,21.33
2022-08-20T06:53:56.583Z,23.88
2022-08-20T06:54:58.998Z,21.33
2022-08-20T06:56:02.163Z,22.52
2022-08-20T06:57:04.651Z,23.10
2022-08-20T06:58:32.742Z,22.40
2022-08-20T06:59:33.310Z,21.90
2022-08-20T07:00:37.363Z,25.13
2022-08-20T07:01:39.760Z,22.85
2022-08-20T07:02:42.201Z,23.83
2022-08-20T07:03:54.499Z,24.20
2022-08-20T07:05:00.339Z,23.38
2022-08-20T07:06:02.622Z,24.85
2022-08-20T07:07:04.954Z,22.92
2022-08-20T07:08:12.339Z,25.60
2022-08-20T07:09:14.631Z,23.52
2022-08-20T07:10:21.443Z,23.10
2022-08-20T07:11:27.760Z,24.20
2022-08-20T07:12:30.776Z,25.70
2022-08-20T07:13:33.040Z,24.50
2022-08-20T07:14:35.980Z,24.80
2022-08-20T07:15:39.129Z,26.05
2022-08-20T07:16:42.167Z,29.13
2022-08-20T07:17:50.367Z,24.83
2022-08-20T07:18:52.670Z,26.08
2022-08-20T07:19:54.868Z,26.70
2022-08-20T07:20:58.265Z,25.33
2022-08-20T07:22:00.460Z,25.10
2022-08-20T07:23:08.450Z,24.77
2022-08-20T07:24:10.643Z,24.92
2022-08-20T07:25:16.229Z,22.45
2022-08-20T07:26:18.614Z,22.52
2022-08-20T07:27:22.697Z,21.52
2022-08-20T07:28:28.819Z,21.85
2022-08-20T07:29:51.229Z,20.38
2022-08-20T07:31:15.742Z,18.75
2022-08-20T07:32:37.204Z,19.92
2022-08-20T07:33:44.707Z,21.73
2022-08-20T07:34:47.040Z,21.25
2022-08-20T07:35:50.548Z,22.77
2022-08-20T07:36:52.713Z,23.20
2022-08-20T07:37:57.257Z,24.95
2022-08-20T07:38:59.542Z,24.70
2022-08-20T07:40:13.241Z,25.15
2022-08-20T07:41:15.651Z,27.17
2022-08-20T07:42:18.339Z,29.65
2022-08-20T07:43:23.318Z,27.50
2022-08-20T07:44:29.150Z,27.23
2022-08-20T07:45:34.364Z,28.60
2022-08-20T07:46:36.734Z,29.95
2022-08-20T07:47:42.440Z,30.70
2022-08-20T07:48:47.097Z,31.92
2022-08-20T07:49:49.273Z,31.80
2022-08-20T07:50:52.636Z,29.65
2022-08-20T07:51:58.257Z,31.33
2022-08-20T07:53:00.691Z,32.00
2022-08-20T07:54:10.407Z,31.95
2022-08-20T07:55:15.564Z,30.90
2022-08-20T07:56:21.586Z,33.33
2022-08-20T07:57:23.780Z,30.83
2022-08-20T07:58:27.672Z,32.67
2022-08-20T07:59:35.840Z,30.13
2022-08-20T08:00:38.688Z,32.70
2022-08-20T08:01:40.965Z,31.75
2022-08-20T08:02:43.349Z,31.10
2022-08-20T08:03:49.601Z,32.72
2022-08-20T08:04:52.557Z,30.13
2022-08-20T08:05:55.779Z,31.98
2022-08-20T08:07:00.247Z,30.63
2022-08-20T08:08:07.159Z,32.70
2022-08-20T08:09:14.249Z,31.20
2022-08-20T08:10:20.215Z,32.72
2022-08-20T08:11:22.684Z,30.77
2022-08-20T08:12:29.049Z,31.80
2022-08-20T08:13:35.905Z,31.23
2022-08-20T08:14:39.912Z,31.73
2022-08-20T08:15:46.781Z,30.77
2022-08-20T08:16:49.673Z,32.05
2022-08-20T08:17:55.540Z,27.88
2022-08-20T08:18:58.565Z,29.52
2022-08-20T08:20:01.439Z,29.25
2022-08-20T08:21:05.689Z,31.58
2022-08-20T08:22:14.356Z,33.70
2022-08-20T08:23:24.680Z,30.77
2022-08-20T08:24:34.587Z,31.13
2022-08-20T08:25:36.994Z,30.17
2022-08-20T08:26:39.453Z,28.58
2022-08-20T08:27:41.959Z,27.05
2022-08-20T08:28:44.580Z,30.85
2022-08-20T08:29:47.182Z,30.00
2022-08-20T08:30:49.744Z,30.35
2022-08-20T08:31:51.960Z,31.48
2022-08-20T08:33:13.138Z,31.13
2022-08-20T08:34:15.392Z,30.92
2022-08-20T08:35:17.871Z,30.08
2022-08-20T08:36:20.095Z,30.85
2022-08-20T08:37:22.372Z,30.25
2022-08-20T08:38:25.994Z,29.23
2022-08-20T08:39:31.754Z,28.40
2022-08-20T08:40:37.529Z,30.15
2022-08-20T08:41:49.984Z,31.25
2022-08-20T08:42:58.580Z,27.02
2022-08-20T08:44:08.317Z,28.85
2022-08-20T08:45:13.230Z,28.55
2022-08-20T08:46:18.928Z,30.92
2022-08-20T08:47:31.927Z,31.45
2022-08-20T08:48:37.617Z,27.17
2022-08-20T08:49:40.164Z,27.70
2022-08-20T08:50:52.900Z,28.40
2022-08-20T08:52:05.101Z,29.08
2022-08-20T08:53:15.572Z,28.85
2022-08-20T08:54:22.145Z,31.10
2022-08-20T08:55:27.550Z,26.08
2022-08-20T08:56:30.914Z,28.17
2022-08-20T08:57:33.874Z,28.42
2022-08-20T08:58:36.641Z,28.50
2022-08-20T08:59:48.566Z,26.85
2022-08-20T09:01:13.786Z,28.27
2022-08-20T09:02:38.899Z,29.20
2022-08-20T09:03:44.848Z,28.88
2022-08-20T09:04:47.527Z,28.27
2022-08-20T09:05:53.265Z,27.17
2022-08-20T09:06:55.539Z,29.20
2022-08-20T09:07:59.390Z,29.63
2022-08-20T09:09:04.155Z,28.08
2022-08-20T09:10:08.628Z,28.23
2022-08-20T09:11:10.891Z,27.40
2022-08-20T09:12:19.124Z,29.80
2022-08-20T09:13:23.999Z,28.33
2022-08-20T09:14:26.180Z,28.25
2022-08-20T09:15:28.357Z,26.05
2022-08-20T09:16:45.722Z,25.55
2022-08-20T09:17:53.827Z,26.60
2022-08-20T09:18:56.036Z,27.83
2022-08-20T09:19:58.245Z,26.35
2022-08-20T09:21:00.547Z,26.50
2022-08-20T09:22:14.126Z,26.20
2022-08-20T09:23:16.442Z,25.08
2022-08-20T09:24:18.874Z,26.35
2022-08-20T09:25:21.748Z,26.70
2022-08-20T09:26:23.921Z,23.90
2022-08-20T09:27:32.215Z,24.63
2022-08-20T09:28:37.163Z,24.73
2022-08-20T09:29:39.941Z,25.67
2022-08-20T09:30:42.280Z,25.13
2022-08-20T09:31:46.521Z,27.80
2022-08-20T09:32:48.784Z,25.13
2022-08-20T09:33:52.054Z,27.20
2022-08-20T09:34:56.580Z,26.02
2022-08-20T09:35:58.788Z,24.80
2022-08-20T09:37:01.134Z,26.17
2022-08-20T09:38:03.510Z,25.00
2022-08-20T09:39:05.738Z,26.00
2022-08-20T09:40:09.438Z,24.70
2022-08-20T09:41:11.674Z,26.63
2022-08-20T09:42:17.178Z,26.92
2022-08-20T09:43:19.483Z,27.45
2022-08-20T09:44:21.725Z,26.30
2022-08-20T09:45:24.306Z,25.00
2022-08-20T09:46:27.231Z,26.08
2022-08-20T09:47:29.835Z,26.17
2022-08-20T09:48:32.350Z,26.85
2022-08-20T09:49:36.897Z,25.80
2022-08-20T09:50:46.189Z,25.42
2022-08-20T09:51:48.492Z,26.23
2022-08-20T09:52:53.652Z,25.92
2022-08-20T09:53:56.050Z,27.55
2022-08-20T09:55:04.217Z,26.48
2022-08-20T09:56:06.719Z,28.42
2022-08-20T09:57:09.861Z,27.38
2022-08-20T09:58:35.161Z,27.05
2022-08-20T09:59:37.684Z,29.10
2022-08-20T10:00:40.577Z,28.13
2022-08-20T10:01:42.886Z,27.42
2022-08-20T10:02:45.328Z,26.88
2022-08-20T10:03:51.199Z,28.42
2022-08-20T10:04:53.575Z,25.85
2022-08-20T10:05:55.759Z,26.00
2022-08-20T10:06:58.004Z,26.65
2022-08-20T10:08:00.267Z,26.73
2022-08-20T10:09:03.397Z,26.10
2022-08-20T10:10:09.163Z,25.25
2022-08-20T10:11:11.712Z,28.88
2022-08-20T10:12:14.192Z,27.70
2022-08-20T10:13:16.416Z,26.02
2022-08-20T10:14:18.686Z,28.00
2022-08-20T10:15:20.991Z,26.88
2022-08-20T10:16:23.188Z,28.80
2022-08-20T10:17:25.414Z,26.48
2022-08-20T10:18:27.608Z,25.80
2022-08-20T10:19:31.316Z,28.65
2022-08-20T10:20:35.702Z,25.95
2022-08-20T10:21:38.986Z,26.40
2022-08-20T10:22:42.295Z,27.23
2022-08-20T10:23:44.552Z,26.02
2022-08-20T10:24:46.768Z,26.42
2022-08-20T10:25:48.996Z,27.33
2022-08-20T10:26:54.488Z,26.35
2022-08-20T10:27:57.068Z,26.35
2022-08-20T10:28:59.394Z,25.52
2022-08-20T10:30:02.283Z,27.17
2022-08-20T10:31:08.625Z,26.77
2022-08-20T10:32:14.805Z,25.83
2022-08-20T10:33:17.136Z,27.00
2022-08-20T10:34:19.623Z,25.95
2022-08-20T10:35:21.966Z,26.92
2022-08-20T10:36:24.178Z,28.15
2022-08-20T10:37:26.858Z,29.30
2022-08-20T10:38:29.055Z,26.83
2022-08-20T10:39:31.535Z,27.50
2022-08-20T10:40:33.908Z,28.73
2022-08-20T10:41:41.028Z,28.48
2022-08-20T10:42:43.917Z,29.38
2022-08-20T10:43:46.364Z,29.67
2022-08-20T10:44:48.783Z,26.85
2022-08-20T10:45:51.275Z,27.60
2022-08-20T10:46:53.602Z,26.17
2022-08-20T10:48:01.009Z,25.83
2022-08-20T10:49:03.411Z,29.23
2022-08-20T10:50:09.052Z,27.42
2022-08-20T10:51:11.346Z,26.00
2022-08-20T10:52:14.049Z,26.65
2022-08-20T10:53:17.263Z,25.27
2022-08-20T10:54:19.531Z,27.45
2022-08-20T10:55:21.779Z,26.42
2022-08-20T10:56:24.093Z,27.67
2022-08-20T10:57:28.916Z,26.48
2022-08-20T10:58:39.249Z,27.33
2022-08-20T10:59:44.029Z,29.13
2022-08-20T11:00:47.137Z,27.63
2022-08-20T11:01:49.427Z,26.85
2022-08-20T11:02:52.043Z,27.33
2022-08-20T11:03:54.253Z,27.35
2022-08-20T11:04:56.963Z,24.77
2022-08-20T11:06:01.792Z,26.65
2022-08-20T11:07:55.439Z,27.52
2022-08-20T11:08:57.048Z,26.40
2022-08-20T11:09:59.465Z,28.10
2022-08-20T11:11:02.206Z,28.27
2022-08-20T11:12:04.820Z,28.58
2022-08-20T11:13:08.437Z,27.48
2022-08-20T11:14:10.646Z,28.67
2022-08-20T11:15:13.729Z,28.50
2022-08-20T11:16:15.953Z,28.17
2022-08-20T11:17:23.666Z,28.50
2022-08-20T11:18:26.093Z,28.88
2022-08-20T11:19:28.684Z,28.38
2022-08-20T11:20:32.441Z,28.38
2022-08-20T11:21:34.643Z,27.38
2022-08-20T11:22:37.253Z,27.42
2022-08-20T11:23:39.534Z,30.20
2022-08-20T11:24:42.029Z,27.83
2022-08-20T11:25:48.448Z,28.10
2022-08-20T11:26:53.340Z,26.92
2022-08-20T11:27:57.072Z,27.27
2022-08-20T11:28:59.384Z,27.20
2022-08-20T11:30:02.879Z,28.08
2022-08-20T11:31:05.187Z,30.10
2022-08-20T11:32:07.425Z,28.33
2022-08-20T11:33:09.806Z,33.58
2022-08-20T11:34:12.852Z,29.60
2022-08-20T11:35:41.065Z,28.77
2022-08-20T11:36:38.207Z,28.17
2022-08-20T11:37:40.678Z,27.40
2022-08-20T11:38:43.160Z,28.77
2022-08-20T11:39:45.588Z,30.15
2022-08-20T11:40:47.898Z,29.45
2022-08-20T11:41:55.454Z,26.60
2022-08-20T11:43:14.115Z,30.10
2022-08-20T11:44:20.121Z,27.40
2022-08-20T11:45:23.595Z,28.08
2022-08-20T11:46:28.631Z,27.75
2022-08-20T11:47:33.806Z,28.27
2022-08-20T11:48:38.610Z,28.90
2022-08-20T11:49:40.799Z,27.67
2022-08-20T11:50:42.997Z,28.75
2022-08-20T11:51:49.637Z,28.65
2022-08-20T11:52:52.472Z,28.08
2022-08-20T11:53:54.893Z,26.65
2022-08-20T11:54:59.857Z,27.48
2022-08-20T11:56:02.162Z,27.75
2022-08-20T11:57:06.610Z,28.70
2022-08-20T11:58:09.842Z,26.90
2022-08-20T11:59:12.070Z,26.85
2022-08-20T12:00:33.151Z,27.45
2022-08-20T12:01:36.047Z,27.60
2022-08-20T12:02:38.377Z,26.63
2022-08-20T12:03:40.689Z,26.58
2022-08-20T12:04:42.878Z,27.83
2022-08-20T12:05:46.350Z,27.88
2022-08-20T12:06:48.607Z,26.63
2022-08-20T12:07:50.777Z,28.45
2022-08-20T12:08:52.964Z,27.52
2022-08-20T12:09:56.000Z,27.17
2022-08-20T12:11:00.101Z,27.33
2022-08-20T12:12:06.016Z,27.98
2022-08-20T12:13:08.749Z,26.80
2022-08-20T12:14:10.921Z,26.48
2022-08-20T12:15:13.119Z,25.52
2022-08-20T12:16:16.046Z,26.52
2022-08-20T12:17:24.234Z,25.60
2022-08-20T12:18:27.080Z,25.70
2022-08-20T12:19:29.396Z,25.27
2022-08-20T12:20:31.647Z,24.45
2022-08-20T12:21:33.917Z,24.70
2022-08-20T12:22:36.581Z,25.88
2022-08-20T12:23:38.865Z,24.75
2022-08-20T12:24:41.052Z,25.77
2022-08-20T12:25:46.616Z,23.73
2022-08-20T12:26:48.769Z,24.38
2022-08-20T12:27:51.115Z,25.52
2022-08-20T12:28:55.679Z,24.73
2022-08-20T12:30:00.509Z,23.95
2022-08-20T12:31:02.709Z,23.63
2022-08-20T12:32:07.544Z,24.85
2022-08-20T12:33:09.848Z,24.42
2022-08-20T12:34:12.100Z,24.65
2022-08-20T12:35:19.822Z,24.95
2022-08-20T12:36:22.005Z,24.85
2022-08-20T12:37:27.124Z,24.95
2022-08-20T12:38:29.357Z,25.58
2022-08-20T12:39:34.641Z,25.15
2022-08-20T12:40:37.232Z,22.75
2022-08-20T12:41:39.456Z,24.60
2022-08-20T12:42:42.352Z,24.48
2022-08-20T12:43:44.553Z,25.92
2022-08-20T12:44:47.218Z,26.30
2022-08-20T12:45:49.450Z,23.48
2022-08-20T12:46:51.690Z,24.50
2022-08-20T12:48:00.841Z,25.40
2022-08-20T12:49:03.309Z,23.85
2022-08-20T12:50:21.604Z,23.65
2022-08-20T12:51:23.821Z,22.65
2022-08-20T12:52:27.220Z,25.63
2022-08-20T12:53:29.416Z,25.05
2022-08-20T12:54:31.616Z,25.20
2022-08-20T12:55:34.262Z,24.23
2022-08-20T12:56:36.481Z,25.48
2022-08-20T12:58:01.009Z,23.98
2022-08-20T12:59:03.273Z,25.35
2022-08-20T13:00:11.259Z,24.73
2022-08-20T13:01:15.822Z,25.20
2022-08-20T13:02:18.867Z,24.92
2022-08-20T13:03:21.297Z,24.25
2022-08-20T13:04:24.270Z,23.33
2022-08-20T13:05:29.648Z,24.63
2022-08-20T13:06:31.839Z,23.50
2022-08-20T13:07:34.864Z,24.45
2022-08-20T13:08:37.046Z,24.63
2022-08-20T13:09:40.552Z,24.75
2022-08-20T13:10:47.016Z,22.75
2022-08-20T13:11:51.621Z,24.30
2022-08-20T13:12:54.245Z,25.08
2022-08-20T13:13:56.496Z,23.80
2022-08-20T13:15:01.661Z,23.40
2022-08-20T13:16:04.095Z,23.88
2022-08-20T13:17:07.069Z,24.50
2022-08-20T13:18:09.388Z,24.33
2022-08-20T13:19:11.581Z,25.65
2022-08-20T13:20:17.121Z,23.98
2022-08-20T13:21:23.786Z,25.25
2022-08-20T13:22:26.215Z,23.42
2022-08-20T13:23:28.639Z,23.52
2022-08-20T13:24:31.084Z,25.02
2022-08-20T13:25:34.203Z,26.15
2022-08-20T13:26:36.432Z,23.65
2022-08-20T13:27:43.261Z,24.17
2022-08-20T13:28:45.481Z,24.65
2022-08-20T13:29:57.762Z,24.35
2022-08-20T13:31:02.167Z,23.30
2022-08-20T13:32:05.302Z,23.73
2022-08-20T13:33:07.494Z,23.95
2022-08-20T13:34:09.871Z,24.45
2022-08-20T13:35:13.436Z,24.55
2022-08-20T13:36:15.631Z,26.15
2022-08-20T13:37:25.462Z,24.77
2022-08-20T13:38:28.306Z,26.58
2022-08-20T13:39:30.530Z,24.35
2022-08-20T13:40:32.902Z,25.30
2022-08-20T13:41:35.166Z,23.25
2022-08-20T13:42:37.756Z,26.73
2022-08-20T13:43:39.907Z,25.30
2022-08-20T13:44:42.391Z,25.88
2022-08-20T13:45:44.567Z,24.63
2022-08-20T13:46:48.205Z,24.95
2022-08-20T13:47:54.331Z,24.40
2022-08-20T13:48:56.564Z,25.70
2022-08-20T13:50:05.114Z,24.33
2022-08-20T13:51:07.319Z,24.83
2022-08-20T13:52:09.789Z,25.20
2022-08-20T13:53:12.102Z,24.35
2022-08-20T13:54:14.327Z,24.48
2022-08-20T13:55:21.694Z,24.77
2022-08-20T13:56:24.686Z,24.80